createdAt,value
2018-09-25T00:01:05.089Z,11.71
2018-09-25T00:03:39.447Z,11.71
2018-09-25T00:06:13.799Z,11.59
2018-09-25T00:08:48.329Z,11.56
2018-09-25T00:11:22.710Z,11.47
2018-09-25T00:13:57.167Z,11.38
2018-09-25T00:16:31.618Z,11.20
2018-09-25T00:19:05.958Z,11.24
2018-09-25T00:21:40.331Z,11.23
2018-09-25T00:24:14.734Z,11.29
2018-09-25T00:26:49.106Z,11.26
2018-09-25T00:29:23.498Z,11.24
2018-09-25T00:31:58.095Z,11.10
2018-09-25T00:34:32.507Z,11.12
2018-09-25T00:37:06.954Z,11.02
2018-09-25T00:39:41.416Z,10.96
2018-09-25T00:42:15.938Z,11.00
2018-09-25T00:44:51.476Z,10.92
2018-09-25T00:47:25.862Z,10.88
2018-09-25T00:50:00.274Z,10.90
2018-09-25T00:52:34.754Z,10.86
2018-09-25T00:55:09.390Z,10.86
2018-09-25T00:57:43.930Z,10.89
2018-09-25T01:00:18.386Z,10.93
2018-09-25T01:02:52.918Z,10.90
2018-09-25T01:05:27.298Z,10.89
2018-09-25T01:08:01.879Z,10.94
2018-09-25T01:10:36.366Z,10.91
2018-09-25T01:13:10.762Z,10.91
2018-09-25T01:15:45.123Z,11.02
2018-09-25T01:18:19.494Z,11.01
2018-09-25T01:20:53.973Z,10.77
2018-09-25T01:23:28.351Z,10.89
2018-09-25T01:26:02.884Z,10.96
2018-09-25T01:28:37.316Z,10.95
2018-09-25T01:31:11.698Z,11.03
2018-09-25T01:33:46.118Z,10.88
2018-09-25T01:36:21.783Z,10.89
2018-09-25T01:38:56.195Z,10.78
2018-09-25T01:41:30.542Z,10.87
2018-09-25T01:44:05.117Z,10.73
2018-09-25T01:46:39.697Z,10.69
2018-09-25T01:49:13.970Z,10.74
2018-09-25T01:51:52.477Z,10.75
2018-09-25T01:54:26.978Z,10.74
2018-09-25T01:57:01.323Z,10.60
2018-09-25T01:59:35.717Z,10.60
2018-09-25T02:02:10.127Z,10.56
2018-09-25T02:04:44.590Z,10.39
2018-09-25T02:07:19.038Z,10.31
2018-09-25T02:09:53.613Z,10.31
2018-09-25T02:12:27.986Z,10.55
2018-09-25T02:15:02.538Z,10.60
2018-09-25T02:17:36.927Z,10.46
2018-09-25T02:20:11.483Z,10.40
2018-09-25T02:22:45.861Z,10.34
2018-09-25T02:25:20.286Z,10.32
2018-09-25T02:27:54.665Z,10.30
2018-09-25T02:30:29.051Z,10.34
2018-09-25T02:33:03.578Z,10.22
2018-09-25T02:35:38.107Z,10.31
2018-09-25T02:38:12.479Z,10.22
2018-09-25T02:40:46.892Z,10.32
2018-09-25T02:43:22.207Z,10.36
2018-09-25T02:45:56.595Z,10.33
2018-09-25T02:48:31.038Z,10.27
2018-09-25T02:51:05.451Z,10.24
2018-09-25T02:53:39.846Z,10.15
2018-09-25T02:56:14.222Z,10.17
2018-09-25T02:58:48.606Z,10.23
2018-09-25T03:01:23.260Z,10.10
2018-09-25T03:03:57.720Z,10.12
2018-09-25T03:06:32.179Z,10.03
2018-09-25T03:09:06.611Z,10.12
2018-09-25T03:11:40.975Z,10.27
2018-09-25T03:14:15.490Z,10.09
2018-09-25T03:16:49.932Z,9.93
2018-09-25T03:19:24.438Z,10.01
2018-09-25T03:21:58.871Z,9.96
2018-09-25T03:24:33.418Z,10.02
2018-09-25T03:27:07.891Z,9.96
2018-09-25T03:29:42.387Z,9.90
2018-09-25T03:32:16.872Z,9.95
2018-09-25T03:34:52.128Z,10.11
2018-09-25T03:37:26.645Z,9.91
2018-09-25T03:40:01.047Z,9.98
2018-09-25T03:42:35.595Z,10.00
2018-09-25T03:45:10.098Z,9.92
2018-09-25T03:47:44.411Z,9.70
2018-09-25T03:50:18.851Z,9.70
2018-09-25T03:52:54.196Z,9.66
2018-09-25T03:55:28.609Z,9.72
2018-09-25T03:58:03.106Z,9.72
2018-09-25T04:00:37.485Z,9.57
2018-09-25T04:03:12.000Z,9.75
2018-09-25T04:05:46.420Z,9.85
2018-09-25T04:08:22.078Z,9.57
2018-09-25T04:10:56.583Z,9.67
2018-09-25T04:13:31.192Z,9.59
2018-09-25T04:16:05.536Z,9.49
2018-09-25T04:18:40.047Z,9.36
2018-09-25T04:21:14.452Z,9.36
2018-09-25T04:23:48.886Z,9.45
2018-09-25T04:26:23.270Z,9.43
2018-09-25T04:28:57.690Z,9.46
2018-09-25T04:31:32.063Z,9.50
2018-09-25T04:34:06.479Z,9.50
2018-09-25T04:36:41.013Z,9.48
2018-09-25T04:39:15.412Z,9.48
2018-09-25T04:41:49.909Z,9.51
2018-09-25T04:44:24.295Z,9.59
2018-09-25T04:46:58.730Z,9.51
2018-09-25T04:49:33.075Z,9.41
2018-09-25T04:52:07.489Z,9.50
2018-09-25T04:54:41.946Z,9.41
2018-09-25T04:57:19.290Z,9.46
2018-09-25T04:59:53.723Z,9.44
2018-09-25T05:02:28.133Z,9.46
2018-09-25T05:05:02.563Z,9.35
2018-09-25T05:07:38.197Z,9.41
2018-09-25T05:10:12.554Z,9.43
2018-09-25T05:12:47.006Z,9.47
2018-09-25T05:15:22.543Z,9.40
2018-09-25T05:17:57.032Z,9.36
2018-09-25T05:20:31.331Z,9.31
2018-09-25T05:23:05.727Z,9.18
2018-09-25T05:25:40.153Z,9.18
2018-09-25T05:28:14.571Z,9.26
2018-09-25T05:30:48.879Z,9.21
2018-09-25T05:33:23.267Z,9.15
2018-09-25T05:35:57.622Z,9.16
2018-09-25T05:38:32.086Z,9.11
2018-09-25T05:41:06.584Z,9.17
2018-09-25T05:43:41.086Z,9.10
2018-09-25T05:46:15.415Z,9.13
2018-09-25T05:48:49.976Z,9.11
2018-09-25T05:51:24.375Z,9.18
2018-09-25T05:53:58.765Z,9.20
2018-09-25T05:56:33.144Z,9.13
2018-09-25T05:59:07.515Z,9.24
2018-09-25T06:01:41.924Z,9.24
2018-09-25T06:04:16.467Z,9.24
2018-09-25T06:06:51.060Z,9.25
2018-09-25T06:09:25.565Z,9.26
2018-09-25T06:12:31.071Z,9.38
2018-09-25T06:15:05.422Z,9.28
2018-09-25T06:17:39.743Z,9.37
2018-09-25T06:20:14.273Z,9.51
2018-09-25T06:22:48.684Z,9.69
2018-09-25T06:25:23.195Z,9.63
2018-09-25T06:27:57.485Z,9.66
2018-09-25T06:30:31.869Z,9.84
2018-09-25T06:33:06.217Z,9.89
2018-09-25T06:35:40.675Z,10.02
2018-09-25T06:38:15.126Z,10.00
2018-09-25T06:40:49.583Z,10.12
2018-09-25T06:43:24.263Z,10.31
2018-09-25T06:45:58.679Z,10.42
2018-09-25T06:48:33.451Z,10.54
2018-09-25T06:51:07.942Z,10.61
2018-09-25T06:53:42.405Z,10.62
2018-09-25T06:56:16.699Z,10.67
2018-09-25T06:58:51.071Z,10.74
2018-09-25T07:01:25.752Z,10.91
2018-09-25T07:04:00.206Z,10.95
2018-09-25T07:06:34.627Z,11.03
2018-09-25T07:09:12.439Z,11.25
2018-09-25T07:11:47.167Z,11.16
2018-09-25T07:14:21.586Z,11.16
2018-09-25T07:16:55.911Z,11.26
2018-09-25T07:19:30.347Z,11.39
2018-09-25T07:22:05.004Z,11.36
2018-09-25T07:24:40.290Z,11.07
2018-09-25T07:27:14.529Z,11.18
2018-09-25T07:29:49.046Z,11.31
2018-09-25T07:32:23.539Z,11.39
2018-09-25T07:34:57.891Z,11.44
2018-09-25T07:37:32.432Z,11.56
2018-09-25T07:40:06.939Z,11.58
2018-09-25T07:42:41.478Z,11.55
2018-09-25T07:45:15.970Z,11.62
2018-09-25T07:47:50.451Z,11.81
2018-09-25T07:50:24.802Z,11.83
2018-09-25T07:52:59.188Z,12.03
2018-09-25T07:55:33.741Z,12.23
2018-09-25T07:58:08.123Z,12.25
2018-09-25T08:00:42.634Z,12.23
2018-09-25T08:03:17.044Z,12.30
2018-09-25T08:05:51.455Z,12.36
2018-09-25T08:08:25.857Z,12.44
2018-09-25T08:11:00.395Z,12.57
2018-09-25T08:13:34.909Z,12.64
2018-09-25T08:16:10.594Z,12.64
2018-09-25T08:18:44.971Z,12.71
2018-09-25T08:21:19.314Z,12.96
2018-09-25T08:23:53.830Z,13.26
2018-09-25T08:26:28.148Z,13.54
2018-09-25T08:29:02.514Z,13.80
2018-09-25T08:31:36.970Z,14.10
2018-09-25T08:34:11.334Z,14.23
2018-09-25T08:36:45.832Z,14.49
2018-09-25T08:39:20.257Z,14.56
2018-09-25T08:41:54.509Z,14.42
2018-09-25T08:44:28.989Z,14.28
2018-09-25T08:47:03.476Z,14.08
2018-09-25T08:49:38.015Z,14.01
2018-09-25T08:52:12.514Z,14.27
2018-09-25T08:54:46.965Z,14.27
2018-09-25T08:57:21.332Z,14.37
2018-09-25T08:59:55.941Z,14.52
2018-09-25T09:02:30.442Z,14.50
2018-09-25T09:05:04.745Z,14.64
2018-09-25T09:07:40.288Z,14.75
2018-09-25T09:10:14.743Z,14.66
2018-09-25T09:12:49.277Z,14.70
2018-09-25T09:15:23.774Z,14.90
2018-09-25T09:17:58.431Z,14.58
2018-09-25T09:20:32.907Z,14.53
2018-09-25T09:23:07.275Z,14.81
2018-09-25T09:25:41.703Z,14.74
2018-09-25T09:28:16.267Z,14.64
2018-09-25T09:30:50.595Z,14.90
2018-09-25T09:33:24.949Z,14.96
2018-09-25T09:35:59.343Z,15.07
2018-09-25T09:38:33.838Z,15.12
2018-09-25T09:41:08.418Z,14.69
2018-09-25T09:43:42.899Z,14.94
2018-09-25T09:46:17.356Z,14.91
2018-09-25T09:48:51.981Z,15.08
2018-09-25T09:51:26.466Z,14.81
2018-09-25T09:54:00.775Z,15.02
2018-09-25T09:56:35.114Z,14.94
2018-09-25T09:59:43.607Z,14.96
2018-09-25T10:02:17.995Z,15.02
2018-09-25T10:04:52.496Z,14.88
2018-09-25T10:07:26.980Z,15.11
2018-09-25T10:10:01.441Z,15.26
2018-09-25T10:12:35.735Z,15.34
2018-09-25T10:15:11.158Z,15.42
2018-09-25T10:17:45.738Z,15.54
2018-09-25T10:20:20.086Z,15.75
2018-09-25T10:22:54.564Z,15.70
2018-09-25T10:25:28.943Z,15.86
2018-09-25T10:28:03.477Z,15.97
2018-09-25T10:30:38.054Z,15.84
2018-09-25T10:33:12.535Z,15.94
2018-09-25T10:35:46.918Z,15.83
2018-09-25T10:38:21.456Z,15.52
2018-09-25T10:40:55.836Z,15.67
2018-09-25T10:43:30.158Z,15.58
2018-09-25T10:46:04.616Z,15.42
2018-09-25T10:48:39.018Z,15.40
2018-09-25T10:51:13.579Z,15.64
2018-09-25T10:53:47.974Z,15.71
2018-09-25T10:56:22.558Z,15.71
2018-09-25T10:58:57.027Z,16.15
2018-09-25T11:01:31.387Z,16.15
2018-09-25T11:04:05.749Z,15.91
2018-09-25T11:06:41.164Z,15.80
2018-09-25T11:09:15.743Z,15.89
2018-09-25T11:11:50.229Z,15.92
2018-09-25T11:14:24.813Z,15.97
2018-09-25T11:16:59.195Z,16.01
2018-09-25T11:19:33.735Z,16.10
2018-09-25T11:22:08.146Z,16.00
2018-09-25T11:24:42.660Z,16.33
2018-09-25T11:27:17.111Z,16.41
2018-09-25T11:29:51.469Z,16.73
2018-09-25T11:32:25.852Z,16.51
2018-09-25T11:35:00.363Z,16.73
2018-09-25T11:37:34.772Z,16.74
2018-09-25T11:40:09.071Z,16.79
2018-09-25T11:42:43.582Z,16.78
2018-09-25T11:45:18.066Z,16.75
2018-09-25T11:47:52.575Z,16.73
2018-09-25T11:50:27.040Z,16.69
2018-09-25T11:53:01.572Z,16.93
2018-09-25T11:55:35.974Z,16.86
2018-09-25T11:58:11.395Z,16.99
2018-09-25T12:00:45.905Z,17.01
2018-09-25T12:03:20.459Z,16.90
2018-09-25T12:05:54.950Z,16.85
2018-09-25T12:08:29.496Z,16.94
2018-09-25T12:11:03.829Z,17.16
2018-09-25T12:13:38.468Z,17.29
2018-09-25T12:16:12.825Z,17.32
2018-09-25T12:18:47.170Z,17.14
2018-09-25T12:21:21.619Z,17.13
2018-09-25T12:23:56.131Z,16.99
2018-09-25T12:26:30.797Z,17.00
2018-09-25T12:29:05.239Z,16.72
2018-09-25T12:31:40.978Z,16.78
2018-09-25T12:34:15.527Z,16.66
2018-09-25T12:36:49.936Z,16.55
2018-09-25T12:39:24.454Z,16.68
2018-09-25T12:41:59.063Z,16.87
2018-09-25T12:44:33.500Z,16.88
2018-09-25T12:47:08.019Z,16.96
2018-09-25T12:49:42.568Z,16.95
2018-09-25T12:52:17.079Z,16.83
2018-09-25T12:54:51.471Z,17.07
2018-09-25T12:57:25.819Z,16.84
2018-09-25T13:00:00.266Z,16.78
2018-09-25T13:02:34.724Z,16.85
2018-09-25T13:08:14.431Z,16.60
2018-09-25T13:10:48.947Z,16.69
2018-09-25T13:13:23.468Z,16.90
2018-09-25T13:15:58.994Z,16.54
2018-09-25T13:18:33.367Z,16.84
2018-09-25T13:21:07.830Z,17.07
2018-09-25T13:23:42.548Z,17.02
2018-09-25T13:26:16.866Z,16.90
2018-09-25T13:28:51.230Z,17.01
2018-09-25T13:31:25.759Z,17.10
2018-09-25T13:34:00.233Z,17.17
2018-09-25T13:36:34.625Z,17.16
2018-09-25T13:39:08.898Z,17.05
2018-09-25T13:41:43.798Z,17.09
2018-09-25T13:44:18.131Z,17.11
2018-09-25T13:46:52.687Z,17.18
2018-09-25T13:49:27.223Z,17.22
2018-09-25T13:52:01.715Z,17.02
2018-09-25T13:54:36.025Z,17.10
2018-09-25T13:57:10.591Z,17.13
2018-09-25T13:59:44.934Z,16.82
2018-09-25T14:02:19.255Z,16.61
2018-09-25T14:04:53.660Z,16.78
2018-09-25T14:07:28.090Z,16.82
2018-09-25T14:10:02.469Z,16.56
2018-09-25T14:12:36.980Z,16.57
2018-09-25T14:15:11.462Z,16.61
2018-09-25T14:17:45.795Z,16.72
2018-09-25T14:20:20.114Z,16.84
2018-09-25T14:22:54.720Z,16.87
2018-09-25T14:25:29.163Z,17.02
2018-09-25T14:28:03.724Z,16.82
2018-09-25T14:30:38.110Z,16.61
2018-09-25T14:33:13.794Z,16.47
2018-09-25T14:35:48.175Z,16.26
2018-09-25T14:38:22.515Z,16.38
2018-09-25T14:40:57.085Z,16.53
2018-09-25T14:43:31.567Z,16.64
2018-09-25T14:46:05.879Z,16.80
2018-09-25T14:48:40.266Z,16.74
2018-09-25T14:51:14.701Z,16.37
2018-09-25T14:53:49.227Z,16.48
2018-09-25T14:56:23.639Z,16.49
2018-09-25T14:58:59.216Z,16.63
2018-09-25T15:01:33.598Z,16.43
2018-09-25T15:04:08.006Z,16.19
2018-09-25T15:06:43.830Z,16.29
2018-09-25T15:09:18.335Z,16.56
2018-09-25T15:11:52.844Z,16.65
2018-09-25T15:14:27.211Z,16.75
2018-09-25T15:17:01.530Z,16.45
2018-09-25T15:19:36.218Z,16.32
2018-09-25T15:22:10.867Z,16.39
2018-09-25T15:24:44.939Z,16.29
2018-09-25T15:27:19.515Z,16.43
2018-09-25T15:29:53.905Z,16.58
2018-09-25T15:32:28.589Z,16.55
2018-09-25T15:35:03.149Z,16.32
2018-09-25T15:37:37.526Z,16.33
2018-09-25T15:40:12.229Z,16.52
2018-09-25T15:42:46.700Z,16.62
2018-09-25T15:45:21.186Z,16.54
2018-09-25T15:47:55.644Z,16.67
2018-09-25T15:50:30.154Z,16.63
2018-09-25T15:53:04.606Z,16.75
2018-09-25T15:55:38.954Z,16.86
2018-09-25T15:58:14.018Z,16.84
2018-09-25T16:00:48.452Z,16.89
2018-09-25T16:03:22.948Z,17.00
2018-09-25T16:05:57.459Z,16.92
2018-09-25T16:08:31.919Z,16.73
2018-09-25T16:11:06.315Z,16.67
2018-09-25T16:13:40.687Z,16.59
2018-09-25T16:16:15.044Z,16.59
2018-09-25T16:18:49.451Z,16.51
2018-09-25T16:21:23.943Z,16.53
2018-09-25T16:23:59.562Z,16.18
2018-09-25T16:26:34.054Z,16.33
2018-09-25T16:29:08.615Z,16.25
2018-09-25T16:31:44.886Z,16.28
2018-09-25T16:34:19.351Z,16.38
2018-09-25T16:36:53.817Z,16.25
2018-09-25T16:39:28.221Z,15.82
2018-09-25T16:42:02.734Z,15.77
2018-09-25T16:44:37.187Z,15.92
2018-09-25T16:47:11.652Z,15.91
2018-09-25T16:49:46.147Z,15.95
2018-09-25T16:52:20.675Z,15.92
2018-09-25T16:54:55.082Z,15.93
2018-09-25T16:57:29.576Z,16.05
2018-09-25T17:00:04.019Z,16.02
2018-09-25T17:02:38.394Z,16.00
2018-09-25T17:05:13.998Z,15.98
2018-09-25T17:07:48.421Z,16.04
2018-09-25T17:10:29.745Z,16.00
2018-09-25T17:13:04.272Z,16.09
2018-09-25T17:15:38.859Z,16.10
2018-09-25T17:18:14.524Z,16.10
2018-09-25T17:20:49.019Z,16.14
2018-09-25T17:23:23.538Z,16.07
2018-09-25T17:25:58.131Z,16.09
2018-09-25T17:28:32.569Z,16.03
2018-09-25T17:31:07.155Z,16.01
2018-09-25T17:33:41.608Z,15.93
2018-09-25T17:36:16.143Z,15.78
2018-09-25T17:38:50.579Z,15.72
2018-09-25T17:41:25.150Z,15.72
2018-09-25T17:43:59.745Z,15.72
2018-09-25T17:46:34.102Z,15.69
2018-09-25T17:49:08.725Z,15.65
2018-09-25T17:51:44.390Z,15.46
2018-09-25T17:54:20.636Z,15.44
2018-09-25T17:56:55.028Z,15.41
2018-09-25T17:59:29.522Z,15.33
2018-09-25T18:02:03.858Z,15.23
2018-09-25T18:04:38.343Z,15.20
2018-09-25T18:07:12.819Z,15.15
2018-09-25T18:09:47.293Z,15.15
2018-09-25T18:12:21.649Z,15.04
2018-09-25T18:14:56.206Z,15.04
2018-09-25T18:17:30.695Z,15.04
2018-09-25T18:20:05.184Z,15.02
2018-09-25T18:22:39.621Z,14.96
2018-09-25T18:25:14.311Z,14.92
2018-09-25T18:27:48.834Z,14.95
2018-09-25T18:30:23.126Z,14.91
2018-09-25T18:32:57.513Z,14.83
2018-09-25T18:35:31.884Z,14.59
2018-09-25T18:38:06.298Z,14.51
2018-09-25T18:40:40.655Z,14.53
2018-09-25T18:43:15.063Z,14.60
2018-09-25T18:45:49.519Z,14.48
2018-09-25T18:48:23.886Z,14.20
2018-09-25T18:50:58.373Z,14.29
2018-09-25T18:53:32.725Z,14.51
2018-09-25T18:56:07.121Z,14.62
2018-09-25T18:58:41.664Z,14.67
2018-09-25T19:01:16.229Z,14.74
2018-09-25T19:03:50.650Z,14.62
2018-09-25T19:06:24.946Z,14.57
2018-09-25T19:08:59.963Z,14.52
2018-09-25T19:11:34.431Z,14.33
2018-09-25T19:14:08.778Z,14.33
2018-09-25T19:16:44.638Z,14.16
2018-09-25T19:19:19.156Z,14.17
2018-09-25T19:21:53.558Z,14.16
2018-09-25T19:24:28.062Z,14.31
2018-09-25T19:27:02.487Z,14.33
2018-09-25T19:29:36.767Z,14.26
2018-09-25T19:32:11.010Z,14.21
2018-09-25T19:34:45.427Z,14.27
2018-09-25T19:37:19.955Z,14.26
2018-09-25T19:39:54.402Z,14.25
2018-09-25T19:42:28.893Z,14.24
2018-09-25T19:45:03.538Z,14.21
2018-09-25T19:47:37.902Z,14.16
2018-09-25T19:50:12.330Z,13.98
2018-09-25T19:52:46.773Z,13.88
2018-09-25T19:55:21.339Z,13.80
2018-09-25T19:57:55.875Z,13.93
2018-09-25T20:00:30.327Z,13.89
2018-09-25T20:03:04.700Z,13.89
2018-09-25T20:05:39.205Z,13.93
2018-09-25T20:08:14.622Z,13.86
2018-09-25T20:10:48.982Z,13.83
2018-09-25T20:13:23.565Z,13.78
2018-09-25T20:15:58.174Z,13.77
2018-09-25T20:18:32.591Z,13.71
2018-09-25T20:21:06.883Z,13.73
2018-09-25T20:23:41.423Z,13.43
2018-09-25T20:26:15.815Z,13.43
2018-09-25T20:28:50.579Z,13.34
2018-09-25T20:31:25.024Z,13.30
2018-09-25T20:34:00.069Z,13.26
2018-09-25T20:36:34.492Z,13.13
2018-09-25T20:39:09.027Z,13.07
2018-09-25T20:41:44.775Z,13.08
2018-09-25T20:44:19.197Z,12.86
2018-09-25T20:46:53.760Z,12.80
2018-09-25T20:49:28.359Z,12.67
2018-09-25T20:52:02.691Z,12.65
2018-09-25T20:54:37.169Z,12.47
2018-09-25T20:57:11.673Z,12.39
2018-09-25T20:59:46.097Z,12.40
2018-09-25T21:02:20.571Z,12.32
2018-09-25T21:04:55.087Z,12.38
2018-09-25T21:07:29.494Z,12.26
2018-09-25T21:10:03.903Z,12.31
2018-09-25T21:12:38.379Z,12.46
2018-09-25T21:15:12.893Z,12.51
2018-09-25T21:17:47.369Z,12.53
2018-09-25T21:20:21.724Z,12.42
2018-09-25T21:22:56.232Z,12.43
2018-09-25T21:25:30.721Z,12.49
2018-09-25T21:28:05.203Z,12.38
2018-09-25T21:30:39.743Z,12.21
2018-09-25T21:33:14.878Z,12.33
2018-09-25T21:35:49.324Z,12.18
2018-09-25T21:38:23.690Z,12.03
2018-09-25T21:40:58.174Z,12.04
2018-09-25T21:43:32.474Z,11.92
2018-09-25T21:46:07.054Z,11.93
2018-09-25T21:48:41.497Z,11.98
2018-09-25T21:51:15.984Z,11.95
2018-09-25T21:53:50.265Z,11.89
2018-09-25T21:56:24.602Z,11.89
2018-09-25T21:59:00.294Z,11.84
2018-09-25T22:01:34.840Z,11.86
2018-09-25T22:04:09.223Z,11.86
2018-09-25T22:06:44.790Z,11.82
2018-09-25T22:09:19.269Z,11.65
2018-09-25T22:11:53.607Z,11.54
2018-09-25T22:14:28.055Z,11.56
2018-09-25T22:17:02.434Z,11.46
2018-09-25T22:19:36.862Z,11.32
2018-09-25T22:22:11.497Z,11.38
2018-09-25T22:24:46.081Z,11.22
2018-09-25T22:27:20.539Z,11.12
2018-09-25T22:29:55.027Z,11.08
2018-09-25T22:32:29.442Z,11.05
2018-09-25T22:35:03.966Z,10.94
2018-09-25T22:37:38.439Z,11.02
2018-09-25T22:40:12.802Z,11.19
2018-09-25T22:42:47.135Z,11.28
2018-09-25T22:45:21.686Z,11.29
2018-09-25T22:47:56.075Z,11.21
2018-09-25T22:50:30.500Z,11.27
2018-09-25T22:53:05.032Z,11.17
2018-09-25T22:55:39.479Z,11.04
2018-09-25T22:58:14.859Z,10.96
2018-09-25T23:00:49.350Z,10.94
2018-09-25T23:03:23.700Z,10.80
2018-09-25T23:05:58.196Z,10.67
2018-09-25T23:08:32.551Z,10.79
2018-09-25T23:11:06.940Z,10.77
2018-09-25T23:13:41.315Z,10.71
2018-09-25T23:16:15.766Z,10.77
2018-09-25T23:18:50.174Z,10.53
2018-09-25T23:21:24.546Z,10.40
2018-09-25T23:23:58.931Z,10.37
2018-09-25T23:26:33.404Z,10.47
2018-09-25T23:29:07.735Z,10.46
2018-09-25T23:31:42.321Z,10.53
2018-09-25T23:34:16.800Z,10.54
2018-09-25T23:36:51.288Z,10.61
2018-09-25T23:39:28.716Z,10.60
2018-09-25T23:42:03.032Z,10.53
2018-09-25T23:44:37.341Z,10.50
2018-09-25T23:47:12.421Z,10.33
2018-09-25T23:49:45.694Z,10.33
2018-09-25T23:52:19.199Z,10.26
2018-09-25T23:54:52.293Z,10.00
2018-09-25T23:57:25.579Z,9.98
